Time;durP1;ratioP1;P1;durP2;ratioP2;P2;SDS_P1;SDS_P2;PMS_P1;PMS_P2;Temp;Humidity;BMP_temperature;BMP_pressure;BME280_temperature;BME280_humidity;BME280_pressure;Samples;Min_cycle;Max_cycle;Signal;HPM_P1;HPM_P2
2021/08/20 00:01:08;;;;;;;1.90;1.48;;;;;;;22.00;54.94;101492.66;4959944;29;20031;-77
2021/08/20 00:03:33;;;;;;;1.65;1.38;;;;;;;22.00;54.98;101497.91;4926242;29;20031;-79
2021/08/20 00:05:59;;;;;;;2.00;1.20;;;;;;;22.03;54.99;101505.78;4942199;29;20387;-79
2021/08/20 00:08:24;;;;;;;1.90;1.20;;;;;;;22.03;54.96;101508.44;4959453;29;20035;-79
2021/08/20 00:10:50;;;;;;;1.77;1.42;;;;;;;21.99;54.97;101489.13;4959266;29;20433;-78
2021/08/20 00:13:16;;;;;;;1.75;1.23;;;;;;;21.99;54.97;101491.78;4926299;29;20047;-79
2021/08/20 00:15:41;;;;;;;1.60;1.23;;;;;;;22.00;54.91;101493.53;4941914;29;20038;-78
2021/08/20 00:18:06;;;;;;;2.35;1.27;;;;;;;22.02;54.88;101497.03;4926585;29;20396;-79
2021/08/20 00:20:32;;;;;;;1.90;1.55;;;;;;;21.99;55.07;101489.13;4942401;29;20038;-79
2021/08/20 00:22:57;;;;;;;1.92;1.33;;;;;;;22.02;55.10;101485.59;4942031;29;20054;-78
2021/08/20 00:25:22;;;;;;;1.88;1.40;;;;;;;21.99;54.98;101488.25;4941419;29;20393;-79
2021/08/20 00:27:48;;;;;;;2.03;1.55;;;;;;;22.01;54.96;101494.41;4925913;29;20478;-79
2021/08/20 00:30:13;;;;;;;3.20;2.90;;;;;;;21.97;54.96;101490.88;4926265;29;20031;-79
2021/08/20 00:32:39;;;;;;;1.88;1.55;;;;;;;22.01;54.85;101489.13;4941597;29;20031;-79
2021/08/20 00:35:05;;;;;;;1.92;1.55;;;;;;;22.01;55.04;101489.13;4941478;29;20051;-78
2021/08/20 00:37:33;;;;;;;2.10;1.40;;;;;;;21.98;54.79;101483.84;4941469;29;20497;-78
2021/08/20 00:39:58;;;;;;;2.38;1.35;;;;;;;22.00;54.94;101485.63;4925624;29;20031;-79
2021/08/20 00:42:23;;;;;;;1.92;1.50;;;;;;;21.98;55.04;101478.59;4959277;29;20035;-79
2021/08/20 00:44:49;;;;;;;2.15;1.35;;;;;;;22.00;54.90;101482.97;4941283;29;20150;-79
2021/08/20 00:47:15;;;;;;;1.55;1.30;;;;;;;21.97;54.98;101476.84;4941198;29;20429;-79
2021/08/20 00:49:40;;;;;;;2.00;1.35;;;;;;;22.00;54.97;101487.38;4925301;29;20034;-79
2021/08/20 00:52:06;;;;;;;2.10;1.40;;;;;;;21.96;54.88;101480.34;4925405;29;20039;-79
2021/08/20 00:54:31;;;;;;;2.10;1.60;;;;;;;21.97;54.79;101479.47;4941496;29;20074;-78
2021/08/20 00:56:57;;;;;;;2.63;1.77;;;;;;;21.95;54.92;101481.22;4959039;28;20086;-78
2021/08/20 00:59:26;;;;;;;1.52;1.42;;;;;;;21.97;54.97;101472.44;4941278;29;20019;-78
2021/08/20 01:01:52;;;;;;;2.65;1.63;;;;;;;21.97;55.02;101472.44;4941921;29;20034;-78
2021/08/20 01:04:17;;;;;;;3.78;1.55;;;;;;;21.99;54.89;101483.00;4940918;29;20393;-79
2021/08/20 01:06:43;;;;;;;1.65;1.48;;;;;;;21.98;54.80;101478.59;4925951;29;20085;-79
2021/08/20 01:09:09;;;;;;;1.63;1.17;;;;;;;21.99;54.81;101478.59;4959117;29;20027;-78
2021/08/20 01:11:35;;;;;;;1.98;1.40;;;;;;;21.95;54.81;101465.44;4959360;29;20023;-77
2021/08/20 01:14:01;;;;;;;1.50;1.10;;;;;;;21.96;54.84;101469.81;4926090;29;20483;-79
2021/08/20 01:16:27;;;;;;;1.70;1.15;;;;;;;21.99;54.85;101475.09;4925559;29;20027;-78
2021/08/20 01:18:52;;;;;;;1.92;1.35;;;;;;;21.99;54.83;101480.38;4941604;29;20515;-79
2021/08/20 01:21:21;;;;;;;1.55;1.25;;;;;;;21.94;55.00;101469.81;4941587;29;20031;-78
2021/08/20 01:23:49;;;;;;;2.22;1.73;;;;;;;21.98;54.92;101470.69;4942069;29;20434;-78
2021/08/20 01:26:14;;;;;;;1.85;1.20;;;;;;;21.94;54.83;101463.72;4958612;29;20058;-77
2021/08/20 01:28:40;;;;;;;2.40;1.30;;;;;;;21.94;54.75;101453.19;4943733;29;20059;-77
2021/08/20 01:31:14;;;;;;;1.98;1.23;;;;;;;21.95;54.91;101452.28;4960979;29;20035;-79
2021/08/20 01:33:40;;;;;;;2.30;1.63;;;;;;;21.97;54.91;101453.13;4941675;29;20065;-78
2021/08/20 01:36:08;;;;;;;2.35;1.52;;;;;;;21.95;54.93;101449.63;4940671;29;20071;-76
2021/08/20 01:38:45;;;;;;;2.17;1.30;;;;;;;21.93;55.02;101446.16;4957970;29;20047;-77
2021/08/20 01:41:10;;;;;;;1.98;1.58;;;;;;;21.97;54.95;101448.75;4925397;29;20047;-77
2021/08/20 01:43:35;;;;;;;2.10;1.30;;;;;;;21.97;54.90;101446.09;4957924;29;20028;-76
2021/08/20 01:46:01;;;;;;;1.60;1.20;;;;;;;21.96;54.86;101440.84;4924679;29;20063;-77
2021/08/20 01:48:26;;;;;;;1.88;1.55;;;;;;;21.97;54.78;101443.47;4942109;29;20038;-78
2021/08/20 01:50:52;;;;;;;2.42;1.40;;;;;;;21.96;54.88;101444.34;4930117;29;20030;-77
2021/08/20 01:53:17;;;;;;;1.58;1.20;;;;;;;21.97;54.92;101443.47;4945156;29;20110;-79
2021/08/20 01:55:44;;;;;;;2.70;1.50;;;;;;;21.98;54.78;101447.84;4942714;29;20038;-77
2021/08/20 01:58:10;;;;;;;2.38;1.27;;;;;;;21.97;54.80;101454.00;4958317;29;20182;-77
2021/08/20 02:00:35;;;;;;;2.13;1.42;;;;;;;21.91;54.94;101443.56;4924617;29;20059;-76
2021/08/20 02:03:01;;;;;;;1.60;1.13;;;;;;;21.96;54.87;101460.16;4941276;29;20126;-78
2021/08/20 02:05:26;;;;;;;1.70;1.40;;;;;;;21.97;54.85;101461.03;4942315;29;20035;-77
2021/08/20 02:07:52;;;;;;;1.38;1.20;;;;;;;21.93;54.96;101446.16;4941947;29;20482;-76
2021/08/20 02:10:17;;;;;;;1.98;1.20;;;;;;;21.93;55.05;101440.91;4960665;28;20031;-76
2021/08/20 02:12:42;;;;;;;1.85;1.33;;;;;;;21.92;54.89;101444.44;4962803;29;20068;-76
2021/08/20 02:15:08;;;;;;;1.20;1.05;;;;;;;21.94;54.93;101442.66;4928677;29;20031;-77
2021/08/20 02:17:35;;;;;;;2.08;1.30;;;;;;;21.94;54.98;101440.84;4927813;29;20027;-79
2021/08/20 02:20:00;;;;;;;1.95;1.38;;;;;;;21.95;54.97;101441.72;4944535;29;20027;-76
2021/08/20 02:22:26;;;;;;;1.70;1.20;;;;;;;21.96;54.80;101449.63;4961662;29;20390;-77
2021/08/20 02:24:54;;;;;;;2.03;1.50;;;;;;;21.96;55.03;101449.63;4961737;29;20031;-77
2021/08/20 02:27:20;;;;;;;2.28;1.67;;;;;;;21.91;54.91;101450.56;4944449;29;20031;-77
2021/08/20 02:29:45;;;;;;;2.03;1.30;;;;;;;21.96;54.94;101454.00;4913009;29;20082;-76
2021/08/20 02:32:11;;;;;;;2.08;1.67;;;;;;;21.96;55.03;101448.75;4945560;29;20397;-77
2021/08/20 02:34:36;;;;;;;1.60;1.20;;;;;;;21.94;54.91;101450.56;4946729;29;20462;-77
2021/08/20 02:37:01;;;;;;;1.80;1.20;;;;;;;21.97;54.95;101458.41;4963884;29;20043;-77
2021/08/20 02:39:27;;;;;;;1.50;1.10;;;;;;;21.91;54.76;101445.31;4947182;29;20544;-77
2021/08/20 02:41:52;;;;;;;1.98;1.65;;;;;;;21.92;54.93;101441.78;4930573;29;20035;-76
2021/08/20 02:44:18;;;;;;;2.53;1.50;;;;;;;21.95;54.92;101452.28;4931224;29;20090;-77
2021/08/20 02:46:44;;;;;;;1.65;1.17;;;;;;;21.92;54.82;101444.44;4930923;29;20039;-77
2021/08/20 02:49:10;;;;;;;2.10;1.45;;;;;;;21.91;54.77;101442.69;4915592;29;20055;-77
2021/08/20 02:51:35;;;;;;;1.80;1.30;;;;;;;21.92;55.00;101445.28;4964217;29;20030;-77
2021/08/20 02:54:00;;;;;;;1.48;1.02;;;;;;;21.95;55.17;101444.38;4963608;29;20035;-78
2021/08/20 02:56:26;;;;;;;1.27;1.08;;;;;;;21.92;54.95;101439.16;4964500;29;20042;-77
2021/08/20 02:58:52;;;;;;;1.63;1.10;;;;;;;21.94;54.92;101447.91;4947058;29;20027;-78
2021/08/20 03:01:17;;;;;;;1.30;1.05;;;;;;;21.92;55.02;101441.78;4963830;29;20039;-77
2021/08/20 03:03:43;;;;;;;2.10;1.40;;;;;;;21.95;54.88;101442.59;4931455;29;20031;-76
2021/08/20 03:06:09;;;;;;;2.15;1.35;;;;;;;21.95;55.00;101441.72;4947207;29;20031;-77
2021/08/20 03:08:34;;;;;;;1.38;1.13;;;;;;;21.95;54.97;101439.97;4946891;29;20042;-78
2021/08/20 03:10:59;;;;;;;2.17;1.55;;;;;;;21.93;54.89;101438.28;4930808;29;20034;-77
2021/08/20 03:13:25;;;;;;;1.52;1.00;;;;;;;21.92;54.92;101436.53;4929464;29;20042;-79
2021/08/20 03:15:50;;;;;;;1.73;1.27;;;;;;;21.93;54.98;101427.75;4945008;29;20039;-77
2021/08/20 03:18:16;;;;;;;1.85;1.20;;;;;;;21.92;54.93;101428.63;4929966;29;20042;-77
2021/08/20 03:20:41;;;;;;;2.00;1.30;;;;;;;21.90;54.81;101426.00;4946610;29;20090;-77
2021/08/20 03:23:07;;;;;;;1.60;1.20;;;;;;;21.94;55.00;101440.84;4963486;29;20091;-77
2021/08/20 03:25:32;;;;;;;1.85;1.40;;;;;;;21.92;54.90;101442.66;4930724;29;20058;-77
2021/08/20 03:27:58;;;;;;;1.83;1.20;;;;;;;21.94;54.93;101442.66;4946851;29;20054;-77
2021/08/20 03:30:23;;;;;;;1.90;1.45;;;;;;;21.94;54.93;101440.03;4961910;29;20038;-77
2021/08/20 03:32:48;;;;;;;2.35;1.20;;;;;;;21.89;55.02;101433.91;4928048;29;20035;-77
2021/08/20 03:35:14;;;;;;;2.17;1.40;;;;;;;21.95;55.10;101441.72;4925785;29;20055;-76
2021/08/20 03:37:40;;;;;;;1.75;1.42;;;;;;;21.88;55.17;101429.53;4942469;29;20032;-79
2021/08/20 03:40:06;;;;;;;1.67;1.20;;;;;;;21.91;54.95;101437.41;4927108;29;20039;-77
2021/08/20 03:42:32;;;;;;;1.77;1.23;;;;;;;21.94;54.98;101446.13;4943386;29;20036;-77
2021/08/20 03:44:57;;;;;;;1.17;0.95;;;;;;;21.91;54.64;101440.91;4926361;29;20537;-79
2021/08/20 03:47:22;;;;;;;1.80;1.10;;;;;;;21.90;54.92;101449.69;4926749;29;20027;-78
2021/08/20 03:49:48;;;;;;;1.20;1.10;;;;;;;21.91;54.91;101427.75;4942085;29;20023;-78
2021/08/20 03:52:13;;;;;;;1.85;1.17;;;;;;;21.87;54.96;101426.03;4926165;29;20028;-79
2021/08/20 03:54:38;;;;;;;2.25;1.00;;;;;;;21.91;55.16;101442.69;4943286;29;20067;-79
2021/08/20 03:57:04;;;;;;;1.88;1.30;;;;;;;21.89;55.03;101440.06;4926012;29;20036;-79
2021/08/20 03:59:30;;;;;;;1.77;1.15;;;;;;;21.92;55.01;101434.75;4926807;29;20385;-77
2021/08/20 04:01:56;;;;;;;2.72;1.63;;;;;;;21.90;55.03;101438.28;4943728;29;20043;-79
2021/08/20 04:04:21;;;;;;;1.77;1.20;;;;;;;21.90;55.02;101438.28;4942421;29;20063;-79
2021/08/20 04:06:46;;;;;;;1.92;1.02;;;;;;;21.91;55.19;101440.03;4927426;29;20032;-77
2021/08/20 04:09:12;;;;;;;1.58;1.00;;;;;;;21.93;54.83;101454.06;4928226;29;20382;-77
2021/08/20 04:11:37;;;;;;;1.50;0.90;;;;;;;21.91;55.07;101445.31;4927635;29;20032;-77
2021/08/20 04:14:03;;;;;;;1.73;1.15;;;;;;;21.93;55.11;101452.31;4943208;29;20061;-77
2021/08/20 04:16:29;;;;;;;1.80;1.10;;;;;;;21.90;55.10;101454.09;4942658;29;20074;-77
2021/08/20 04:18:55;;;;;;;1.65;1.10;;;;;;;21.91;55.17;101448.81;4942442;29;20052;-78
2021/08/20 04:21:21;;;;;;;1.50;1.05;;;;;;;21.90;55.04;101460.22;4943434;29;20115;-79
2021/08/20 04:23:46;;;;;;;1.40;1.10;;;;;;;21.94;55.13;101461.09;4926544;29;20034;-77
2021/08/20 04:26:11;;;;;;;1.35;0.90;;;;;;;21.94;55.05;101458.44;4942918;29;20039;-77
2021/08/20 04:28:37;;;;;;;1.23;1.10;;;;;;;21.95;55.10;101462.81;4925560;29;20039;-76
2021/08/20 04:31:02;;;;;;;1.63;1.33;;;;;;;21.90;55.16;101457.59;4941880;29;20038;-77
2021/08/20 04:33:28;;;;;;;2.10;1.55;;;;;;;21.93;55.18;101467.25;4941949;29;20032;-78
2021/08/20 04:35:53;;;;;;;1.48;1.00;;;;;;;21.92;55.12;101470.75;4960396;29;20430;-79
2021/08/20 04:38:19;;;;;;;1.63;1.30;;;;;;;21.91;55.25;101464.63;4927850;29;20389;-78
2021/08/20 04:40:44;;;;;;;1.75;1.20;;;;;;;21.87;55.43;101456.75;4942313;29;20027;-79
2021/08/20 04:43:09;;;;;;;2.75;1.20;;;;;;;21.90;55.15;101462.00;4942331;29;20035;-79
2021/08/20 04:45:35;;;;;;;1.05;0.90;;;;;;;21.89;55.13;101460.25;4959607;29;20172;-79
2021/08/20 04:48:00;;;;;;;1.58;1.00;;;;;;;21.87;55.12;101462.00;4942266;29;20036;-78
2021/08/20 04:50:28;;;;;;;1.65;0.98;;;;;;;21.94;55.40;101474.25;4927814;29;20063;-77
2021/08/20 04:52:54;;;;;;;1.30;1.00;;;;;;;21.83;55.13;101458.53;4942564;29;20397;-78
2021/08/20 04:55:19;;;;;;;1.40;0.93;;;;;;;21.86;55.19;101469.03;4960348;29;20032;-79
2021/08/20 04:57:44;;;;;;;2.42;1.38;;;;;;;21.92;55.17;101479.53;4926642;29;20031;-79
2021/08/20 05:00:10;;;;;;;2.08;1.23;;;;;;;21.88;55.22;101472.53;4942813;29;20027;-79
2021/08/20 05:02:36;;;;;;;0.90;0.60;;;;;;;21.87;55.17;101475.19;4926471;29;20042;-78
2021/08/20 05:05:05;;;;;;;1.23;0.95;;;;;;;21.92;55.18;101482.16;4942592;29;20478;-77
2021/08/20 05:07:33;;;;;;;1.75;1.55;;;;;;;21.93;55.22;101489.19;4941756;29;20059;-77
2021/08/20 05:09:58;;;;;;;1.58;1.13;;;;;;;21.93;55.24;101491.81;4959714;29;20542;-77
2021/08/20 05:12:24;;;;;;;1.63;1.48;;;;;;;21.87;55.32;101477.81;4959113;29;20058;-77
2021/08/20 05:14:49;;;;;;;1.38;0.98;;;;;;;21.92;55.29;101494.47;4925841;29;20069;-79
2021/08/20 05:17:14;;;;;;;0.95;0.80;;;;;;;21.92;55.20;101490.06;4941976;29;20031;-78
2021/08/20 05:19:40;;;;;;;1.75;1.20;;;;;;;21.86;55.36;101482.19;4960738;29;20035;-79
2021/08/20 05:22:05;;;;;;;1.55;0.93;;;;;;;21.92;55.21;101492.69;4943527;29;20039;-78
2021/08/20 05:24:30;;;;;;;1.45;1.10;;;;;;;21.93;55.27;101494.44;4943251;29;20038;-78
2021/08/20 05:26:56;;;;;;;1.00;0.80;;;;;;;21.95;55.35;101497.03;4943585;29;20109;-78
2021/08/20 05:29:21;;;;;;;2.97;1.40;;;;;;;21.90;55.28;101491.84;4960683;29;20039;-79
2021/08/20 05:31:46;;;;;;;1.52;1.02;;;;;;;21.90;55.43;101490.97;4927831;29;20027;-79
2021/08/20 05:34:12;;;;;;;1.33;1.00;;;;;;;21.90;55.28;101494.47;4960925;29;20051;-77
2021/08/20 05:36:37;;;;;;;0.82;0.75;;;;;;;21.93;55.51;101501.47;4943264;29;20062;-79
2021/08/20 05:39:02;;;;;;;1.15;0.80;;;;;;;21.95;55.26;101510.19;4927750;29;20094;-78
2021/08/20 05:41:28;;;;;;;1.30;0.90;;;;;;;21.88;55.20;101488.34;4927787;29;20126;-78
2021/08/20 05:43:53;;;;;;;1.35;1.10;;;;;;;21.95;54.98;101508.44;4961851;28;20465;-79
2021/08/20 05:46:19;;;;;;;1.02;0.77;;;;;;;21.92;55.37;101499.72;4947704;29;20039;-79
2021/08/20 05:48:45;;;;;;;1.25;0.90;;;;;;;21.92;55.40;101505.00;4965018;29;20087;-78
2021/08/20 05:51:10;;;;;;;1.95;1.08;;;;;;;21.94;55.34;101506.69;4963876;29;20556;-77
2021/08/20 05:53:35;;;;;;;1.60;1.10;;;;;;;21.95;55.42;101504.94;4964003;29;20055;-78
2021/08/20 05:56:01;;;;;;;1.55;1.15;;;;;;;21.94;55.38;101508.50;4945227;29;20122;-79
2021/08/20 05:58:26;;;;;;;1.40;1.02;;;;;;;21.95;55.26;101512.84;4945021;29;20062;-76
2021/08/20 06:00:51;;;;;;;1.50;1.00;;;;;;;21.93;55.24;101507.63;4944483;29;20031;-77
2021/08/20 06:03:21;;;;;;;1.67;0.80;;;;;;;21.95;55.27;101507.56;4943274;29;20071;-72
2021/08/20 06:05:47;;;;;;;1.67;0.95;;;;;;;21.94;55.29;101517.22;4959198;29;20031;-71
2021/08/20 06:08:13;;;;;;;1.45;0.70;;;;;;;21.95;55.44;101508.44;4959155;29;20503;-71
2021/08/20 06:10:38;;;;;;;1.80;0.95;;;;;;;21.98;55.38;101515.44;4927022;29;20027;-72
2021/08/20 06:13:04;;;;;;;1.73;1.00;;;;;;;21.99;55.20;101511.97;4926211;29;20037;-72
2021/08/20 06:15:29;;;;;;;1.52;1.00;;;;;;;22.03;55.19;101508.44;4958920;29;20366;-74
2021/08/20 06:17:54;;;;;;;1.00;0.75;;;;;;;22.07;55.15;101520.69;4942585;29;20485;-74
2021/08/20 06:20:20;;;;;;;1.05;0.77;;;;;;;22.12;55.13;101525.91;4942586;29;20027;-74
2021/08/20 06:22:45;;;;;;;1.40;0.90;;;;;;;22.14;54.95;101526.75;4943023;29;20039;-74
2021/08/20 06:25:11;;;;;;;2.28;0.90;;;;;;;22.19;54.94;101527.59;4959153;29;20039;-74
2021/08/20 06:27:37;;;;;;;1.67;1.40;;;;;;;22.20;54.87;101524.09;4959374;29;20106;-74
2021/08/20 06:30:03;;;;;;;1.08;0.77;;;;;;;22.22;54.70;101527.56;4942461;29;20188;-72
2021/08/20 06:32:29;;;;;;;1.20;0.90;;;;;;;22.21;54.89;101525.81;4925853;29;20114;-71
2021/08/20 06:34:54;;;;;;;2.17;1.00;;;;;;;22.24;54.92;101533.69;4958534;29;20110;-71
2021/08/20 06:37:19;;;;;;;1.85;1.35;;;;;;;22.23;54.95;101539.84;4958557;29;20507;-72
2021/08/20 06:39:45;;;;;;;1.33;1.13;;;;;;;22.17;55.01;101538.16;4958718;29;20462;-71
2021/08/20 06:42:10;;;;;;;1.52;0.90;;;;;;;22.16;55.06;101531.13;4925289;29;20401;-71
2021/08/20 06:44:36;;;;;;;0.98;0.70;;;;;;;22.16;55.24;101540.81;4925974;29;20035;-71
2021/08/20 06:47:01;;;;;;;1.13;0.90;;;;;;;22.11;55.14;101543.47;4940976;29;20118;-71
2021/08/20 06:49:26;;;;;;;2.15;1.33;;;;;;;22.12;55.33;101539.06;4958159;29;20027;-71
2021/08/20 06:51:52;;;;;;;1.35;0.77;;;;;;;22.17;55.25;101545.19;4941214;29;20143;-72
2021/08/20 06:54:17;;;;;;;1.00;0.82;;;;;;;22.22;55.21;101538.97;4925424;29;20031;-71
2021/08/20 06:56:42;;;;;;;1.38;1.10;;;;;;;22.26;55.12;101539.81;4940413;29;20039;-72
2021/08/20 06:59:08;;;;;;;0.88;0.60;;;;;;;22.29;54.94;101545.94;4940938;29;20027;-74
2021/08/20 07:01:33;;;;;;;1.17;0.88;;;;;;;22.32;54.81;101539.78;4925034;29;20117;-71
2021/08/20 07:03:59;;;;;;;1.52;1.08;;;;;;;22.35;54.81;101551.13;4940802;29;20039;-72
2021/08/20 07:06:26;;;;;;;1.02;0.75;;;;;;;22.39;54.84;101550.22;4924971;29;20051;-73
2021/08/20 07:08:52;;;;;;;1.30;0.95;;;;;;;22.29;54.90;101537.16;4940882;29;20045;-71
2021/08/20 07:11:19;;;;;;;0.98;0.70;;;;;;;22.38;55.13;101547.59;4958065;29;20470;-73
2021/08/20 07:13:45;;;;;;;1.08;0.98;;;;;;;22.35;54.97;101556.41;4941505;29;20605;-73
2021/08/20 07:16:10;;;;;;;1.13;0.88;;;;;;;22.32;54.94;101559.09;4940771;29;20062;-74
2021/08/20 07:18:36;;;;;;;1.17;0.93;;;;;;;22.34;55.16;101562.56;4940433;29;20370;-74
2021/08/20 07:21:02;;;;;;;0.95;0.80;;;;;;;22.30;55.25;101566.13;4940766;29;20031;-74
2021/08/20 07:23:27;;;;;;;1.00;0.90;;;;;;;22.28;55.21;101559.13;4940700;29;20074;-74
2021/08/20 07:25:53;;;;;;;1.90;1.20;;;;;;;22.28;55.39;101559.13;4940520;29;20027;-74
2021/08/20 07:28:18;;;;;;;1.10;0.80;;;;;;;22.27;55.37;101563.53;4940192;29;20027;-71
2021/08/20 07:30:43;;;;;;;0.93;0.70;;;;;;;22.21;55.48;101557.41;4940265;29;20126;-73
2021/08/20 07:33:09;;;;;;;0.75;0.55;;;;;;;22.23;55.45;101560.91;4924167;29;20133;-73
2021/08/20 07:35:34;;;;;;;1.63;0.98;;;;;;;22.18;55.60;101555.72;4924030;29;20051;-73
2021/08/20 07:37:59;;;;;;;1.27;0.90;;;;;;;22.23;55.18;101569.69;4924391;29;20035;-72
2021/08/20 07:40:25;;;;;;;1.52;1.08;;;;;;;22.23;55.49;101572.34;4939768;29;20087;-72
2021/08/20 07:42:50;;;;;;;1.02;0.82;;;;;;;22.26;55.44;101567.03;4908666;29;20126;-71
2021/08/20 07:45:15;;;;;;;1.15;0.80;;;;;;;22.37;55.29;101569.56;4924204;29;20027;-72
2021/08/20 07:47:50;;;;;;;1.27;0.88;;;;;;;22.37;54.91;101559.91;4924139;29;20130;-74
2021/08/20 07:50:15;;;;;;;1.02;0.80;;;;;;;22.37;55.02;101561.66;4939703;29;20380;-73
2021/08/20 07:52:41;;;;;;;1.17;0.73;;;;;;;22.36;55.15;101563.44;4957250;29;20023;-74
2021/08/20 07:55:07;;;;;;;0.88;0.73;;;;;;;22.33;55.25;101567.88;4957054;29;20462;-73
2021/08/20 07:57:52;;;;;;;0.80;0.75;;;;;;;22.26;55.55;101580.22;4924209;29;20038;-73
2021/08/20 08:00:28;;;;;;;1.67;0.98;;;;;;;22.23;55.56;101580.22;4939689;29;20089;-71
2021/08/20 08:02:54;;;;;;;0.85;0.70;;;;;;;22.25;55.66;101582.84;4957135;29;20110;-73
2021/08/20 08:05:22;;;;;;;1.55;0.82;;;;;;;22.24;55.68;101591.66;4956771;29;20382;-72
2021/08/20 08:07:48;;;;;;;0.63;0.60;;;;;;;22.22;55.70;101591.66;4939611;29;20027;-72
2021/08/20 08:10:14;;;;;;;1.58;1.27;;;;;;;22.22;55.72;101589.03;4939425;29;20074;-71
2021/08/20 08:12:39;;;;;;;1.08;0.70;;;;;;;22.18;55.59;101583.81;4939967;29;20047;-71
2021/08/20 08:15:06;;;;;;;1.23;0.98;;;;;;;22.20;55.66;101595.22;4939475;29;20023;-73
2021/08/20 08:17:32;;;;;;;1.73;0.90;;;;;;;22.23;55.62;101593.41;4956515;29;20098;-73
2021/08/20 08:19:57;;;;;;;0.63;0.50;;;;;;;22.23;55.57;101600.44;4956576;29;20110;-73
2021/08/20 08:22:23;;;;;;;1.48;0.90;;;;;;;22.28;55.43;101593.38;4923672;29;20035;-72
2021/08/20 08:24:48;;;;;;;0.75;0.60;;;;;;;22.33;54.88;101597.69;4956771;29;20498;-72
2021/08/20 08:27:13;;;;;;;1.67;1.00;;;;;;;22.39;55.22;101596.78;4923391;29;20508;-73
2021/08/20 08:29:39;;;;;;;1.20;0.70;;;;;;;22.37;55.16;101599.44;4956439;29;20110;-72
2021/08/20 08:32:04;;;;;;;1.20;0.75;;;;;;;22.40;55.29;101598.53;4960569;29;20061;-78
2021/08/20 08:34:30;;;;;;;1.25;0.95;;;;;;;22.41;55.23;101590.63;4941653;29;20079;-77
2021/08/20 08:36:55;;;;;;;1.48;1.10;;;;;;;22.44;55.12;101595.00;4942265;29;20043;-78
2021/08/20 08:39:20;;;;;;;0.75;0.65;;;;;;;22.46;55.04;101607.25;4924655;29;20451;-78
2021/08/20 08:41:45;;;;;;;0.70;0.63;;;;;;;22.37;55.36;101609.97;4940292;29;20159;-78
2021/08/20 08:44:11;;;;;;;1.33;0.80;;;;;;;22.39;55.28;101609.97;4940889;29;20378;-78
2021/08/20 08:46:37;;;;;;;1.10;0.70;;;;;;;22.45;55.19;101605.53;4923802;29;20028;-77
2021/08/20 08:49:06;;;;;;;1.33;0.77;;;;;;;22.45;55.18;101616.06;4924156;29;20171;-77
2021/08/20 08:51:32;;;;;;;1.00;0.60;;;;;;;22.49;55.26;101611.63;4940603;29;20055;-77
2021/08/20 08:53:58;;;;;;;1.05;0.75;;;;;;;22.49;55.17;101614.25;4923086;29;20032;-76
2021/08/20 08:56:23;;;;;;;1.25;0.93;;;;;;;22.48;55.27;101620.41;4940712;29;20122;-77
2021/08/20 08:58:49;;;;;;;1.40;0.73;;;;;;;22.51;54.96;101616.88;4923011;29;20039;-78
2021/08/20 09:01:42;;;;;;;1.27;0.95;;;;;;;22.51;55.14;101612.47;4938590;29;20032;-78
2021/08/20 09:04:08;;;;;;;1.33;0.80;;;;;;;22.55;54.97;101615.97;4919815;29;20043;-76
2021/08/20 09:06:53;;;;;;;0.80;0.70;;;;;;;22.49;55.11;101605.47;4938235;29;20541;-78
2021/08/20 09:09:20;;;;;;;1.30;0.77;;;;;;;22.54;55.04;101609.81;4939215;29;20027;-79
2021/08/20 09:11:51;;;;;;;1.65;1.05;;;;;;;22.54;55.13;101606.31;4938761;29;20027;-77
2021/08/20 09:14:17;;;;;;;1.85;0.88;;;;;;;22.55;55.05;101615.97;4938829;29;20032;-71
2021/08/20 09:16:45;;;;;;;0.85;0.70;;;;;;;22.52;55.18;101614.22;4936513;29;20107;-71
2021/08/20 09:19:15;;;;;;;0.80;0.60;;;;;;;22.54;55.10;101608.94;4935078;29;20028;-77
2021/08/20 09:21:53;;;;;;;1.33;0.80;;;;;;;22.51;55.18;101616.88;4937333;29;20051;-76
2021/08/20 09:24:32;;;;;;;0.70;0.60;;;;;;;22.51;55.26;101617.75;4937299;29;20020;-77
2021/08/20 09:27:21;;;;;;;1.25;0.80;;;;;;;22.49;55.22;101608.09;4939555;29;20092;-78
2021/08/20 09:30:07;;;;;;;0.82;0.63;;;;;;;22.52;55.01;101614.22;4939997;29;20406;-78
2021/08/20 09:32:46;;;;;;;0.98;0.77;;;;;;;22.51;55.21;101624.78;4937830;29;20031;-78
2021/08/20 09:35:13;;;;;;;1.13;0.82;;;;;;;22.49;55.17;101624.78;4937516;29;20107;-78
2021/08/20 09:37:38;;;;;;;1.25;0.88;;;;;;;22.48;55.45;101628.31;4937509;29;20040;-79
2021/08/20 09:40:12;;;;;;;1.02;0.70;;;;;;;22.54;55.22;101637.94;4939000;29;20071;-78
2021/08/20 09:42:39;;;;;;;0.93;0.80;;;;;;;22.53;55.05;101637.06;4938783;29;20123;-79
2021/08/20 09:45:18;;;;;;;1.63;0.85;;;;;;;22.50;55.27;101637.09;4938711;29;20102;-80
2021/08/20 09:47:49;;;;;;;1.42;0.60;;;;;;;22.48;55.41;101646.78;4937200;29;20122;-80
2021/08/20 09:50:14;;;;;;;1.00;0.60;;;;;;;22.42;55.39;101637.19;4937597;29;20070;-79
2021/08/20 09:52:40;;;;;;;1.00;0.68;;;;;;;22.46;55.31;101652.06;4938974;29;20027;-79
2021/08/20 09:55:06;;;;;;;1.13;0.93;;;;;;;22.45;55.23;101645.06;4937641;29;20036;-79
2021/08/20 09:57:35;;;;;;;0.70;0.60;;;;;;;22.41;55.25;101651.22;4939193;29;20117;-77
2021/08/20 10:00:01;;;;;;;0.80;0.60;;;;;;;22.50;55.22;101662.56;4936540;29;20019;-73
2021/08/20 10:02:28;;;;;;;0.55;0.47;;;;;;;22.44;55.38;101653.84;4935956;29;20036;-74
2021/08/20 10:04:56;;;;;;;1.20;0.73;;;;;;;22.49;55.16;101651.16;4934953;29;20028;-73
2021/08/20 10:07:22;;;;;;;0.80;0.60;;;;;;;22.55;55.12;101655.50;4936027;29;20032;-73
2021/08/20 10:09:48;;;;;;;0.95;0.60;;;;;;;22.52;55.08;101660.81;4936029;29;20028;-74
2021/08/20 10:12:22;;;;;;;0.95;0.70;;;;;;;22.55;55.11;101655.50;4936257;29;20182;-73
2021/08/20 10:14:49;;;;;;;1.10;0.70;;;;;;;22.56;54.95;101657.25;4936022;29;20039;-73
2021/08/20 10:17:16;;;;;;;0.73;0.70;;;;;;;22.54;55.13;101657.28;4935888;29;20028;-73
2021/08/20 10:19:42;;;;;;;1.25;0.60;;;;;;;22.50;55.28;101654.66;4934602;29;20040;-73
2021/08/20 10:22:08;;;;;;;1.17;0.95;;;;;;;22.49;55.08;101643.25;4934665;29;20039;-73
2021/08/20 10:24:34;;;;;;;0.93;0.70;;;;;;;22.51;55.04;101648.50;4934939;29;20360;-73
2021/08/20 10:27:02;;;;;;;0.57;0.47;;;;;;;22.50;55.25;101652.03;4934776;29;20036;-73
2021/08/20 10:29:30;;;;;;;1.23;1.08;;;;;;;22.53;55.11;101657.28;4935914;29;20031;-73
2021/08/20 10:31:57;;;;;;;1.13;0.82;;;;;;;22.56;55.41;101657.25;4936906;29;20043;-72
2021/08/20 10:34:39;;;;;;;1.75;0.88;;;;;;;22.57;55.18;101664.28;4945641;29;20135;-73
2021/08/20 10:37:25;;;;;;;1.10;0.80;;;;;;;22.56;55.11;101668.69;4941338;29;20064;-73
2021/08/20 10:39:52;;;;;;;0.75;0.52;;;;;;;22.50;55.10;101649.41;4958305;29;20034;-73
2021/08/20 10:42:21;;;;;;;1.98;0.65;;;;;;;22.55;55.21;101674.84;4941117;29;20041;-73
2021/08/20 10:45:02;;;;;;;0.98;0.80;;;;;;;22.50;55.29;101673.13;4941206;29;20037;-73
2021/08/20 10:47:29;;;;;;;1.42;0.90;;;;;;;22.51;55.21;101683.66;4959143;29;20735;-73
2021/08/20 10:50:09;;;;;;;0.90;0.70;;;;;;;22.52;55.38;101677.50;4942135;29;20118;-73
2021/08/20 10:52:37;;;;;;;1.00;0.73;;;;;;;22.54;55.33;101682.75;4958044;29;20027;-73
2021/08/20 10:55:03;;;;;;;0.82;0.55;;;;;;;22.54;55.23;101688.91;4958088;29;20035;-73
2021/08/20 10:57:34;;;;;;;0.75;0.50;;;;;;;22.55;55.24;101690.66;4957935;29;20028;-73
2021/08/20 11:00:00;;;;;;;1.52;0.70;;;;;;;22.56;55.25;101688.91;4957739;29;20047;-73
2021/08/20 11:02:25;;;;;;;1.48;0.80;;;;;;;22.56;55.20;101683.63;4957859;29;20063;-73
2021/08/20 11:05:04;;;;;;;1.20;0.70;;;;;;;22.52;55.38;101673.97;4957836;29;20034;-73
2021/08/20 11:07:42;;;;;;;1.27;0.90;;;;;;;22.56;55.25;101681.88;4957745;29;20082;-73
2021/08/20 11:10:07;;;;;;;0.98;0.63;;;;;;;22.57;55.24;101686.25;4957737;29;20048;-73
2021/08/20 11:12:42;;;;;;;1.08;0.60;;;;;;;22.57;55.33;101693.28;4957788;29;20466;-73
2021/08/20 11:15:17;;;;;;;1.30;0.73;;;;;;;22.56;55.18;101692.41;4957462;29;20038;-73
2021/08/20 11:18:06;;;;;;;0.80;0.70;;;;;;;22.55;55.16;101687.16;4940179;29;20433;-73
2021/08/20 11:20:35;;;;;;;0.73;0.73;;;;;;;22.55;55.27;101693.28;4940796;29;20023;-73
2021/08/20 11:23:10;;;;;;;0.85;0.63;;;;;;;22.55;55.33;101701.19;4957542;29;20027;-73